Time;durP1;ratioP1;P1;durP2;ratioP2;P2;SDS_P1;SDS_P2;PMS_P1;PMS_P2;Temp;Humidity;BMP_temperature;BMP_pressure;BME280_temperature;BME280_humidity;BME280_pressure;Samples;Min_cycle;Max_cycle;Signal;HPM_P1;HPM_P2
2023/05/11 00:00:18;;;;;;;1.40;1.30;;;22.10;73.60;;;;;;5075846;28;20933;-82
2023/05/11 00:02:47;;;;;;;1.53;1.43;;;22.10;73.60;;;;;;5075623;28;20451;-82
2023/05/11 00:05:14;;;;;;;1.30;1.20;;;22.10;73.70;;;;;;5075688;28;20442;-82
2023/05/11 00:07:41;;;;;;;1.40;1.20;;;22.10;73.70;;;;;;5075685;28;20485;-82
2023/05/11 00:10:09;;;;;;;1.30;1.20;;;22.10;73.60;;;;;;5075302;28;20584;-82
2023/05/11 00:12:35;;;;;;;1.57;1.47;;;22.10;73.70;;;;;;5074435;28;20481;-87
2023/05/11 00:15:02;;;;;;;1.20;1.10;;;22.10;73.70;;;;;;5075469;28;20520;-82
2023/05/11 00:17:29;;;;;;;1.30;1.20;;;22.10;73.60;;;;;;5075401;28;20440;-82
2023/05/11 00:19:57;;;;;;;1.20;1.00;;;22.10;73.70;;;;;;5075456;28;20542;-82
2023/05/11 00:22:24;;;;;;;1.10;0.90;;;22.10;73.70;;;;;;5075374;28;20936;-82
2023/05/11 00:24:51;;;;;;;1.20;1.07;;;22.00;73.60;;;;;;5075336;28;20438;-82
2023/05/11 00:27:18;;;;;;;1.30;1.20;;;22.00;73.60;;;;;;5075285;28;20992;-82
2023/05/11 00:29:44;;;;;;;1.40;1.30;;;22.00;73.60;;;;;;5075161;28;20482;-82
2023/05/11 00:32:11;;;;;;;1.33;1.23;;;22.00;73.60;;;;;;5074940;28;20461;-82
2023/05/11 00:34:38;;;;;;;1.43;1.23;;;22.00;74.50;;;;;;5075217;28;20452;-82
2023/05/11 00:37:07;;;;;;;1.37;1.27;;;22.00;73.60;;;;;;5075120;28;20447;-82
2023/05/11 00:39:38;;;;;;;1.50;1.40;;;22.00;73.60;;;;;;5075165;28;20445;-82
2023/05/11 00:42:05;;;;;;;1.30;1.20;;;22.00;73.70;;;;;;5075020;28;20453;-82
2023/05/11 00:44:32;;;;;;;2.87;1.33;;;22.00;73.60;;;;;;5074978;28;20448;-82
2023/05/11 00:46:59;;;;;;;1.13;1.03;;;22.00;73.60;;;;;;5074811;28;20503;-82
2023/05/11 00:49:26;;;;;;;1.70;1.17;;;22.00;73.70;;;;;;5074728;28;20442;-82
2023/05/11 00:51:53;;;;;;;1.40;1.30;;;22.00;73.60;;;;;;5074682;28;20471;-83
2023/05/11 00:54:21;;;;;;;1.20;1.03;;;22.00;73.70;;;;;;5074777;28;20438;-82
2023/05/11 00:56:48;;;;;;;1.20;1.10;;;22.00;73.60;;;;;;5074697;28;20859;-82
2023/05/11 00:59:15;;;;;;;1.30;1.20;;;22.00;73.60;;;;;;5074530;28;20476;-82
2023/05/11 01:01:43;;;;;;;1.30;1.20;;;22.00;73.60;;;;;;5074454;28;20465;-82
2023/05/11 01:04:10;;;;;;;1.30;1.20;;;22.00;74.50;;;;;;5074443;28;20474;-82
2023/05/11 01:06:45;;;;;;;1.20;1.03;;;22.00;73.60;;;;;;5074581;28;20489;-82
2023/05/11 01:09:20;;;;;;;1.40;1.30;;;22.00;73.70;;;;;;5074506;28;20468;-82
2023/05/11 01:11:56;;;;;;;1.30;1.20;;;22.00;73.70;;;;;;5074085;28;21004;-88
2023/05/11 01:14:32;;;;;;;1.30;1.20;;;22.00;73.70;;;;;;5074466;28;20823;-82
2023/05/11 01:17:07;;;;;;;1.70;1.47;;;22.00;73.70;;;;;;5074381;28;20871;-83
2023/05/11 01:19:42;;;;;;;1.30;1.20;;;22.00;73.70;;;;;;5074294;28;20438;-82
2023/05/11 01:22:23;;;;;;;1.30;1.20;;;22.00;73.70;;;;;;5074305;28;20448;-82
2023/05/11 01:25:05;;;;;;;1.20;1.10;;;22.00;73.70;;;;;;5074094;28;20437;-82
2023/05/11 01:27:49;;;;;;;1.30;1.10;;;22.00;73.80;;;;;;5074245;28;20442;-82
2023/05/11 01:30:35;;;;;;;1.10;0.97;;;22.00;73.80;;;;;;5074016;28;21008;-82
2023/05/11 01:33:07;;;;;;;3.63;1.50;;;22.00;73.80;;;;;;5073772;28;20466;-82
2023/05/11 01:35:37;;;;;;;1.30;1.20;;;22.00;73.80;;;;;;5073947;28;20453;-82
2023/05/11 01:38:09;;;;;;;1.40;1.30;;;22.00;73.90;;;;;;5073803;28;20486;-82
2023/05/11 01:40:38;;;;;;;1.17;1.03;;;22.00;73.80;;;;;;5073975;28;20438;-82
2023/05/11 01:43:08;;;;;;;1.20;1.10;;;22.00;73.80;;;;;;5073702;28;20441;-82
2023/05/11 01:45:40;;;;;;;1.30;1.17;;;22.00;73.80;;;;;;5073802;28;20439;-82
2023/05/11 01:48:11;;;;;;;1.47;1.37;;;22.00;73.80;;;;;;5073742;28;20942;-82
2023/05/11 01:50:39;;;;;;;1.20;1.10;;;22.00;73.80;;;;;;5073670;28;20498;-82
2023/05/11 01:53:08;;;;;;;1.17;1.07;;;22.00;73.80;;;;;;5073474;28;20446;-82
2023/05/11 01:55:37;;;;;;;1.30;1.13;;;22.00;73.80;;;;;;5073593;28;20450;-82
2023/05/11 01:58:06;;;;;;;1.50;1.40;;;22.00;73.80;;;;;;5073578;28;20465;-82
2023/05/11 02:00:34;;;;;;;1.50;1.40;;;22.00;74.60;;;;;;5073544;28;20434;-82
2023/05/11 02:03:05;;;;;;;1.30;1.20;;;22.00;73.80;;;;;;5073437;28;20472;-82
2023/05/11 02:05:34;;;;;;;1.40;1.30;;;22.00;73.80;;;;;;5073526;28;20971;-82
2023/05/11 02:08:03;;;;;;;1.23;1.13;;;22.00;73.80;;;;;;5073409;28;20438;-82
2023/05/11 02:10:31;;;;;;;1.30;1.20;;;22.00;73.80;;;;;;5073063;28;20583;-82
2023/05/11 02:13:00;;;;;;;1.10;0.97;;;22.00;73.80;;;;;;5073255;28;20447;-82
2023/05/11 02:15:28;;;;;;;1.20;1.00;;;22.00;73.80;;;;;;5073336;28;20532;-82
2023/05/11 02:17:55;;;;;;;1.93;1.50;;;22.00;73.80;;;;;;5073368;28;20529;-82
2023/05/11 02:20:25;;;;;;;1.27;1.00;;;21.90;73.70;;;;;;5073330;28;20444;-82
2023/05/11 02:22:54;;;;;;;1.30;1.20;;;22.00;73.90;;;;;;5073188;28;20433;-82
2023/05/11 02:25:22;;;;;;;1.20;1.10;;;22.00;73.90;;;;;;5073176;28;20445;-82
2023/05/11 02:27:49;;;;;;;1.30;1.20;;;21.90;73.70;;;;;;5073243;28;21123;-82
2023/05/11 02:30:16;;;;;;;1.30;1.20;;;21.90;73.80;;;;;;5072958;28;20502;-82
2023/05/11 02:32:49;;;;;;;1.20;1.00;;;22.00;73.80;;;;;;5072967;28;20967;-82
2023/05/11 02:35:20;;;;;;;1.20;1.10;;;21.90;73.70;;;;;;5072631;28;20451;-82
2023/05/11 02:37:50;;;;;;;1.20;1.10;;;22.00;73.80;;;;;;5073104;28;20784;-82
2023/05/11 02:40:20;;;;;;;1.50;1.40;;;21.90;73.70;;;;;;5073169;28;20452;-82
2023/05/11 02:42:53;;;;;;;1.50;1.40;;;21.90;73.80;;;;;;5073025;28;20446;-82
2023/05/11 02:45:20;;;;;;;1.23;1.10;;;21.90;73.70;;;;;;5073113;28;20448;-82
2023/05/11 02:47:52;;;;;;;1.47;1.37;;;21.90;73.80;;;;;;5072961;28;20951;-82
2023/05/11 02:50:23;;;;;;;1.17;1.07;;;21.90;73.80;;;;;;5072857;28;20485;-82
2023/05/11 02:52:55;;;;;;;1.97;1.10;;;21.90;73.70;;;;;;5072908;28;20457;-82
2023/05/11 02:55:23;;;;;;;1.27;1.10;;;21.90;73.80;;;;;;5072916;28;20437;-82
2023/05/11 02:57:50;;;;;;;1.60;1.50;;;21.90;73.80;;;;;;5072974;28;20436;-82
2023/05/11 03:00:17;;;;;;;1.43;1.33;;;21.90;73.80;;;;;;5072839;28;20807;-82
2023/05/11 03:02:44;;;;;;;1.33;1.23;;;21.90;73.80;;;;;;5072776;28;20511;-82
2023/05/11 03:05:11;;;;;;;1.90;1.40;;;21.90;73.80;;;;;;5073065;28;20448;-82
2023/05/11 03:07:38;;;;;;;1.43;1.23;;;21.90;73.80;;;;;;5072782;28;20532;-82
2023/05/11 03:10:08;;;;;;;1.47;1.20;;;21.90;73.90;;;;;;5072353;28;20468;-82
2023/05/11 03:12:35;;;;;;;1.40;1.10;;;21.90;73.80;;;;;;5072643;28;20798;-82
2023/05/11 03:15:03;;;;;;;1.37;1.17;;;21.90;73.80;;;;;;5072847;28;20452;-82
2023/05/11 03:17:30;;;;;;;1.73;1.30;;;21.90;73.80;;;;;;5072719;28;20441;-82
2023/05/11 03:20:02;;;;;;;1.40;1.30;;;21.90;73.80;;;;;;5072803;28;20443;-82
2023/05/11 03:22:30;;;;;;;1.30;1.20;;;21.90;73.80;;;;;;5072744;28;20474;-82
2023/05/11 03:24:57;;;;;;;1.30;1.20;;;21.90;73.80;;;;;;5072694;28;20509;-82
2023/05/11 03:27:27;;;;;;;1.20;0.90;;;21.90;73.80;;;;;;5072647;28;20529;-82
2023/05/11 03:29:55;;;;;;;1.20;1.10;;;21.90;73.80;;;;;;5072495;28;20818;-82
2023/05/11 03:32:22;;;;;;;1.60;1.50;;;21.90;73.80;;;;;;5072377;28;20488;-82
2023/05/11 03:34:50;;;;;;;1.10;1.00;;;21.90;73.80;;;;;;5072474;28;21020;-82
2023/05/11 03:37:19;;;;;;;1.10;1.00;;;21.90;73.80;;;;;;5072544;28;20449;-82
2023/05/11 03:39:50;;;;;;;1.30;1.17;;;21.90;73.80;;;;;;5072653;28;20474;-82
2023/05/11 03:42:20;;;;;;;1.40;1.30;;;21.90;73.80;;;;;;5072503;28;20459;-82
2023/05/11 03:44:51;;;;;;;1.40;1.30;;;21.90;74.70;;;;;;5072419;28;20999;-82
2023/05/11 03:47:19;;;;;;;1.30;1.20;;;21.90;73.80;;;;;;5072866;28;20433;-82
2023/05/11 03:49:47;;;;;;;1.20;1.10;;;21.90;73.80;;;;;;5075920;28;20440;-82
2023/05/11 03:52:14;;;;;;;1.50;1.40;;;21.90;74.70;;;;;;5075789;28;20489;-82
2023/05/11 03:54:42;;;;;;;1.10;1.00;;;21.90;73.80;;;;;;5075884;28;20455;-82
2023/05/11 03:57:09;;;;;;;1.40;1.30;;;21.90;73.90;;;;;;5075775;28;20434;-82
2023/05/11 03:59:36;;;;;;;1.53;1.43;;;21.90;73.90;;;;;;5075884;28;20890;-81
2023/05/11 04:02:04;;;;;;;2.33;1.33;;;21.90;73.80;;;;;;5075645;28;20464;-82
2023/05/11 04:04:31;;;;;;;1.60;1.50;;;21.90;73.80;;;;;;5075826;28;20539;-82
2023/05/11 04:06:58;;;;;;;1.30;1.10;;;21.90;73.80;;;;;;5075768;28;20455;-82
2023/05/11 04:09:25;;;;;;;1.50;1.40;;;21.90;73.80;;;;;;5075476;28;20946;-82
2023/05/11 04:11:52;;;;;;;1.40;1.30;;;21.90;73.90;;;;;;5075267;28;20584;-82
2023/05/11 04:14:20;;;;;;;1.30;1.20;;;21.90;73.80;;;;;;5075562;28;20833;-82
2023/05/11 04:16:46;;;;;;;1.33;1.23;;;21.90;73.90;;;;;;5075609;28;20435;-82
2023/05/11 04:19:15;;;;;;;1.63;1.50;;;21.90;73.90;;;;;;5075610;28;20439;-86
2023/05/11 04:21:42;;;;;;;1.37;1.27;;;21.90;73.90;;;;;;5075318;28;20440;-82
2023/05/11 04:24:09;;;;;;;1.30;1.20;;;21.90;73.90;;;;;;5075486;28;20437;-82
2023/05/11 04:26:35;;;;;;;1.60;1.50;;;21.90;74.00;;;;;;5075333;28;20642;-82
2023/05/11 04:29:02;;;;;;;1.10;0.93;;;21.90;74.00;;;;;;5075256;28;20814;-87
2023/05/11 04:31:29;;;;;;;1.30;1.00;;;21.90;74.00;;;;;;5074950;28;20481;-82
2023/05/11 04:33:56;;;;;;;1.50;1.40;;;21.80;74.70;;;;;;5075160;28;20441;-82
2023/05/11 04:36:24;;;;;;;1.50;1.37;;;21.90;73.90;;;;;;5075149;28;20492;-82
2023/05/11 04:38:51;;;;;;;1.40;1.30;;;21.90;74.00;;;;;;5075067;28;20481;-82
2023/05/11 04:41:18;;;;;;;1.60;1.10;;;21.90;73.90;;;;;;5075019;28;20484;-82
2023/05/11 04:43:45;;;;;;;1.40;1.30;;;21.80;73.90;;;;;;5075009;28;20445;-82
2023/05/11 04:46:12;;;;;;;1.53;1.43;;;21.80;73.90;;;;;;5074888;28;20478;-82
2023/05/11 04:48:39;;;;;;;1.20;1.10;;;21.80;73.80;;;;;;5074934;28;20445;-82
2023/05/11 04:51:06;;;;;;;1.43;1.30;;;21.90;73.90;;;;;;5074551;28;20614;-82
2023/05/11 04:53:34;;;;;;;1.30;1.20;;;21.90;74.00;;;;;;5074830;28;20996;-82
2023/05/11 04:56:01;;;;;;;1.30;1.20;;;21.80;73.90;;;;;;5074781;28;20449;-82
2023/05/11 04:58:28;;;;;;;1.43;1.33;;;21.80;73.90;;;;;;5074308;28;20440;-82
2023/05/11 05:00:54;;;;;;;1.60;1.50;;;21.80;73.80;;;;;;5074592;28;20532;-82
2023/05/11 05:03:21;;;;;;;1.53;1.43;;;21.80;74.00;;;;;;5074479;28;20553;-82
2023/05/11 05:05:48;;;;;;;1.53;1.40;;;21.90;74.00;;;;;;5074572;28;20450;-82
2023/05/11 05:08:16;;;;;;;1.20;1.03;;;21.80;73.90;;;;;;5074537;28;20437;-82
2023/05/11 05:10:44;;;;;;;1.53;1.43;;;21.80;73.90;;;;;;5073903;28;20490;-83
2023/05/11 05:13:11;;;;;;;1.40;1.23;;;21.80;73.80;;;;;;5074429;28;20451;-82
2023/05/11 05:15:38;;;;;;;1.50;1.33;;;21.80;74.70;;;;;;5074259;28;20537;-82
2023/05/11 05:18:05;;;;;;;1.57;1.37;;;21.80;73.90;;;;;;5074493;28;20933;-82
2023/05/11 05:20:33;;;;;;;1.50;1.37;;;21.80;73.90;;;;;;5074260;28;20940;-82
2023/05/11 05:23:00;;;;;;;1.50;1.40;;;21.80;73.90;;;;;;5074275;28;20453;-82
2023/05/11 05:25:28;;;;;;;1.80;1.70;;;21.80;74.00;;;;;;5074179;28;20442;-82
2023/05/11 05:27:56;;;;;;;1.60;1.50;;;21.80;73.90;;;;;;5074105;28;20441;-82
2023/05/11 05:30:23;;;;;;;1.50;1.40;;;21.80;73.90;;;;;;5074054;28;20440;-82
2023/05/11 05:32:50;;;;;;;1.40;1.30;;;21.80;74.10;;;;;;5073778;28;20494;-82
2023/05/11 05:35:16;;;;;;;2.47;1.90;;;21.80;73.90;;;;;;5074218;28;20528;-82
2023/05/11 05:37:43;;;;;;;1.70;1.60;;;21.80;73.90;;;;;;5073909;28;20441;-82
2023/05/11 05:40:11;;;;;;;1.50;1.40;;;21.80;74.00;;;;;;5073906;28;20429;-82
2023/05/11 05:42:37;;;;;;;1.70;1.60;;;21.80;73.90;;;;;;5073739;28;20492;-82
2023/05/11 05:45:07;;;;;;;1.77;1.60;;;21.80;74.00;;;;;;5073889;28;20459;-82
2023/05/11 05:47:33;;;;;;;1.87;1.77;;;21.80;74.00;;;;;;5073789;28;20513;-82
2023/05/11 05:50:00;;;;;;;1.73;1.63;;;21.80;73.90;;;;;;5073581;28;20445;-82
2023/05/11 05:52:27;;;;;;;1.63;1.53;;;21.80;73.90;;;;;;5073558;28;21046;-82
2023/05/11 05:54:54;;;;;;;1.83;1.73;;;21.80;73.90;;;;;;5073551;28;20449;-82
2023/05/11 05:57:21;;;;;;;1.60;1.50;;;21.80;73.80;;;;;;5073628;28;20540;-82
2023/05/11 05:59:48;;;;;;;1.53;1.43;;;21.80;73.90;;;;;;5073571;28;20804;-82
2023/05/11 06:02:16;;;;;;;1.70;1.60;;;21.80;73.90;;;;;;5073346;28;20551;-82
2023/05/11 06:04:43;;;;;;;1.50;1.40;;;21.90;73.90;;;;;;5073597;28;20438;-82
2023/05/11 06:07:09;;;;;;;1.60;1.50;;;21.90;74.00;;;;;;5073417;28;20512;-88
2023/05/11 06:09:36;;;;;;;1.50;1.40;;;21.90;74.00;;;;;;5072852;28;20439;-82
2023/05/11 06:12:03;;;;;;;1.63;1.53;;;21.90;74.00;;;;;;5073015;28;20497;-82
2023/05/11 06:14:30;;;;;;;1.73;1.63;;;21.80;73.90;;;;;;5073167;28;20450;-82
2023/05/11 06:16:57;;;;;;;1.70;1.60;;;21.90;73.90;;;;;;5073392;28;20828;-82
2023/05/11 06:19:25;;;;;;;1.77;1.67;;;21.80;73.90;;;;;;5073345;28;20451;-85
2023/05/11 06:21:52;;;;;;;1.60;1.50;;;21.90;74.00;;;;;;5073325;28;20441;-82
2023/05/11 06:24:19;;;;;;;1.60;1.50;;;21.90;74.10;;;;;;5073325;28;20436;-82
2023/05/11 06:26:46;;;;;;;1.93;1.83;;;21.90;74.00;;;;;;5073159;28;20532;-82
2023/05/11 06:29:12;;;;;;;1.73;1.63;;;21.90;74.00;;;;;;5073236;28;20842;-82
2023/05/11 06:31:40;;;;;;;1.60;1.50;;;21.90;74.00;;;;;;5072763;28;20586;-82
2023/05/11 06:34:07;;;;;;;1.60;1.50;;;21.80;73.90;;;;;;5073333;28;20447;-87
2023/05/11 06:36:36;;;;;;;1.93;1.83;;;21.80;74.00;;;;;;5073334;28;20483;-82
2023/05/11 06:39:04;;;;;;;1.80;1.70;;;21.80;74.00;;;;;;5073134;28;20446;-82
2023/05/11 06:41:30;;;;;;;1.73;1.63;;;21.90;74.10;;;;;;5072995;28;20454;-82
2023/05/11 06:43:57;;;;;;;1.77;1.53;;;21.90;74.10;;;;;;5073068;28;20803;-82
2023/05/11 06:46:24;;;;;;;1.70;1.60;;;21.80;74.70;;;;;;5073072;28;20549;-82
2023/05/11 06:48:51;;;;;;;2.10;2.00;;;21.80;73.90;;;;;;5073068;28;20465;-82
2023/05/11 06:51:19;;;;;;;1.97;1.87;;;21.80;73.80;;;;;;5072700;28;20438;-82
2023/05/11 06:53:48;;;;;;;2.13;1.93;;;21.90;73.90;;;;;;5072960;28;20433;-82
2023/05/11 06:56:15;;;;;;;1.60;1.47;;;21.90;74.00;;;;;;5072942;28;20440;-82
2023/05/11 06:58:41;;;;;;;1.80;1.70;;;21.90;73.90;;;;;;5073052;28;20443;-82
2023/05/11 07:01:08;;;;;;;2.13;1.80;;;21.90;73.90;;;;;;5072936;28;20515;-82
2023/05/11 07:03:35;;;;;;;2.20;2.10;;;21.90;74.00;;;;;;5073096;28;20552;-82
2023/05/11 07:06:02;;;;;;;1.93;1.83;;;21.90;73.90;;;;;;5072976;28;20444;-82
2023/05/11 07:08:29;;;;;;;1.90;1.80;;;21.90;73.90;;;;;;5072894;28;20443;-82
2023/05/11 07:10:57;;;;;;;1.80;1.70;;;21.90;73.80;;;;;;5072576;28;20469;-82
2023/05/11 07:13:24;;;;;;;1.80;1.70;;;21.90;73.80;;;;;;5072660;28;20498;-84
2023/05/11 07:15:51;;;;;;;1.70;1.60;;;21.90;73.90;;;;;;5072836;28;20507;-82
2023/05/11 07:18:18;;;;;;;1.60;1.50;;;21.90;73.80;;;;;;5072715;28;20461;-82
2023/05/11 07:20:48;;;;;;;2.40;2.20;;;21.90;73.80;;;;;;5072614;28;20440;-82
2023/05/11 07:23:15;;;;;;;2.20;2.10;;;21.90;73.90;;;;;;5076370;28;20911;-82
2023/05/11 07:25:42;;;;;;;2.40;2.20;;;21.90;73.80;;;;;;5076383;28;20438;-82
2023/05/11 07:28:10;;;;;;;2.20;2.03;;;21.90;73.80;;;;;;5076519;28;20938;-82
2023/05/11 07:30:37;;;;;;;2.43;2.27;;;22.00;73.80;;;;;;5076168;28;20852;-86
2023/05/11 07:33:05;;;;;;;2.03;1.93;;;22.00;73.60;;;;;;5076134;28;20487;-82
2023/05/11 07:35:32;;;;;;;2.20;2.10;;;22.00;73.60;;;;;;5076329;28;20454;-82
2023/05/11 07:37:58;;;;;;;1.67;1.57;;;22.00;73.60;;;;;;5076169;28;20442;-82
2023/05/11 07:40:25;;;;;;;2.27;2.17;;;22.00;73.50;;;;;;5076219;28;20528;-82
2023/05/11 07:42:52;;;;;;;2.17;2.07;;;22.00;73.50;;;;;;5076120;28;20440;-89
2023/05/11 07:45:21;;;;;;;2.10;2.00;;;22.00;73.60;;;;;;5076068;28;20438;-82
2023/05/11 07:47:47;;;;;;;2.40;2.30;;;22.00;73.50;;;;;;5076123;28;20532;-82
2023/05/11 07:50:14;;;;;;;2.33;2.23;;;22.00;73.50;;;;;;5075832;28;20529;-82
2023/05/11 07:52:41;;;;;;;2.40;2.20;;;22.00;73.40;;;;;;5075879;28;20486;-83
2023/05/11 07:55:08;;;;;;;2.43;2.33;;;22.00;73.40;;;;;;5075977;28;20567;-82
2023/05/11 07:57:35;;;;;;;2.20;2.10;;;22.00;73.40;;;;;;5075921;28;20433;-82
2023/05/11 08:00:04;;;;;;;2.30;2.20;;;22.00;73.40;;;;;;5075994;28;20539;-82
2023/05/11 08:02:32;;;;;;;2.63;2.43;;;22.00;73.40;;;;;;5075539;28;20480;-82
2023/05/11 08:04:59;;;;;;;2.70;2.50;;;22.00;73.50;;;;;;5075718;28;20441;-87
2023/05/11 08:07:26;;;;;;;2.90;2.70;;;22.00;73.40;;;;;;5075674;28;20522;-82
2023/05/11 08:09:53;;;;;;;2.50;2.30;;;22.00;73.40;;;;;;5075476;28;20525;-82
2023/05/11 08:12:19;;;;;;;1.93;1.83;;;22.00;73.40;;;;;;5075450;28;20556;-82
2023/05/11 08:14:47;;;;;;;2.40;2.20;;;22.00;73.40;;;;;;5075488;28;20478;-82
2023/05/11 08:17:14;;;;;;;2.70;2.50;;;22.00;73.40;;;;;;5075636;28;20459;-82
2023/05/11 08:19:42;;;;;;;2.87;2.67;;;22.00;73.50;;;;;;5075495;28;20449;-82
2023/05/11 08:22:09;;;;;;;2.30;2.10;;;22.00;73.50;;;;;;5075347;28;20472;-87
2023/05/11 08:24:36;;;;;;;2.90;2.53;;;22.00;73.50;;;;;;5075297;28;20951;-82
2023/05/11 08:27:02;;;;;;;2.40;2.30;;;22.10;73.50;;;;;;5075218;28;20450;-86
2023/05/11 08:29:29;;;;;;;2.40;2.20;;;22.10;73.50;;;;;;5075368;28;20774;-83
2023/05/11 08:31:57;;;;;;;2.67;2.47;;;22.00;73.40;;;;;;5075023;28;20997;-89
2023/05/11 08:34:24;;;;;;;2.00;1.90;;;22.10;74.40;;;;;;5074590;28;20554;-82
2023/05/11 08:36:54;;;;;;;2.30;2.10;;;22.10;73.50;;;;;;5075189;28;20441;-82
2023/05/11 08:39:21;;;;;;;2.10;2.00;;;22.10;73.60;;;;;;5075121;28;20444;-82
2023/05/11 08:41:50;;;;;;;2.53;2.33;;;22.00;74.30;;;;;;5074924;28;20829;-82
2023/05/11 08:44:18;;;;;;;2.80;2.60;;;22.10;73.60;;;;;;5075104;28;20441;-82
2023/05/11 08:46:47;;;;;;;2.53;2.33;;;22.10;73.60;;;;;;5074911;28;20536;-82
2023/05/11 08:49:15;;;;;;;2.40;2.20;;;22.10;73.60;;;;;;5074943;28;20449;-82
2023/05/11 08:51:42;;;;;;;2.23;2.13;;;22.10;73.60;;;;;;5074693;28;20438;-82
2023/05/11 08:54:11;;;;;;;2.03;1.93;;;22.10;73.50;;;;;;5074780;28;20533;-82
2023/05/11 08:56:41;;;;;;;2.40;2.30;;;22.10;73.50;;;;;;5074875;28;20445;-82
2023/05/11 08:59:08;;;;;;;2.00;1.90;;;22.10;73.50;;;;;;5074636;28;20919;-83
2023/05/11 09:01:36;;;;;;;2.30;2.20;;;22.10;73.50;;;;;;5074426;28;20864;-82
2023/05/11 09:04:04;;;;;;;2.13;2.00;;;22.10;73.40;;;;;;5074618;28;20449;-82
2023/05/11 09:06:32;;;;;;;2.80;2.60;;;22.10;73.50;;;;;;5074474;28;20931;-82
2023/05/11 09:08:59;;;;;;;2.00;1.90;;;22.10;73.50;;;;;;5074530;28;20448;-82
2023/05/11 09:11:28;;;;;;;2.37;2.17;;;22.10;73.40;;;;;;5074133;28;20469;-82
2023/05/11 09:13:55;;;;;;;2.27;2.17;;;22.10;73.40;;;;;;5074354;28;20485;-88
2023/05/11 09:16:22;;;;;;;2.40;2.23;;;22.10;73.40;;;;;;5074291;28;20451;-82
2023/05/11 09:18:49;;;;;;;2.00;1.90;;;22.10;73.40;;;;;;5074274;28;20446;-82
2023/05/11 09:21:16;;;;;;;2.03;1.93;;;22.10;73.40;;;;;;5074188;28;20447;-82
2023/05/11 09:23:44;;;;;;;2.30;2.10;;;22.10;73.50;;;;;;5074482;28;20961;-82
2023/05/11 09:26:14;;;;;;;2.10;2.00;;;22.30;73.80;;;;;;5074272;28;20448;-83
2023/05/11 09:28:51;;;;;;;2.17;2.03;;;22.10;73.50;;;;;;5074128;28;20442;-82
2023/05/11 09:31:36;;;;;;;2.33;2.20;;;22.10;73.50;;;;;;5073875;28;20449;-82
2023/05/11 09:34:14;;;;;;;2.43;2.30;;;22.10;73.60;;;;;;5073266;28;20481;-82
2023/05/11 09:36:41;;;;;;;2.00;1.90;;;22.10;73.60;;;;;;5073975;28;20449;-82
2023/05/11 09:39:08;;;;;;;2.50;2.30;;;22.10;73.70;;;;;;5073887;28;20495;-88
2023/05/11 09:41:35;;;;;;;2.37;2.17;;;22.10;73.70;;;;;;5073794;28;20933;-82
2023/05/11 09:44:09;;;;;;;2.27;2.07;;;22.10;73.70;;;;;;5073788;28;20805;-82
2023/05/11 09:46:37;;;;;;;2.30;2.10;;;22.10;73.70;;;;;;5073724;28;20850;-83
2023/05/11 09:49:04;;;;;;;2.33;2.13;;;22.10;73.70;;;;;;5073798;28;20445;-82
2023/05/11 09:51:32;;;;;;;2.20;2.00;;;22.10;73.80;;;;;;5073529;28;20436;-82
2023/05/11 09:54:00;;;;;;;2.10;1.90;;;22.10;73.70;;;;;;5073582;28;20905;-82
2023/05/11 09:56:47;;;;;;;2.10;2.00;;;22.10;73.80;;;;;;5073709;28;20444;-82
2023/05/11 09:59:17;;;;;;;2.00;1.90;;;22.10;73.70;;;;;;5073630;28;20473;-82
2023/05/11 10:01:44;;;;;;;2.27;2.17;;;22.10;73.80;;;;;;5073654;28;20549;-82
2023/05/11 10:04:11;;;;;;;1.97;1.87;;;22.10;73.80;;;;;;5073511;28;20434;-83
2023/05/11 10:06:49;;;;;;;2.20;2.10;;;22.10;73.90;;;;;;5073407;28;20524;-83
2023/05/11 10:09:18;;;;;;;1.90;1.80;;;22.10;73.80;;;;;;5073429;28;20432;-82
2023/05/11 10:11:46;;;;;;;2.30;2.10;;;22.10;73.80;;;;;;5073173;28;20483;-82
2023/05/11 10:14:14;;;;;;;1.70;1.60;;;22.10;73.80;;;;;;5073375;28;20487;-82
2023/05/11 10:16:45;;;;;;;2.10;2.00;;;22.10;73.80;;;;;;5073366;28;20457;-82
2023/05/11 10:19:13;;;;;;;1.97;1.87;;;22.10;73.70;;;;;;5073378;28;20941;-82
2023/05/11 10:21:41;;;;;;;2.10;2.00;;;22.10;73.70;;;;;;5073293;28;21026;-82
2023/05/11 10:24:08;;;;;;;2.00;1.90;;;22.10;73.70;;;;;;5073253;28;20526;-82
2023/05/11 10:26:36;;;;;;;2.37;2.17;;;22.10;73.60;;;;;;5073216;28;20434;-82
2023/05/11 10:29:03;;;;;;;2.10;2.00;;;22.10;73.60;;;;;;5073233;28;20570;-82
2023/05/11 10:31:31;;;;;;;2.00;1.90;;;22.10;73.50;;;;;;5072940;28;20548;-82
2023/05/11 10:34:02;;;;;;;1.70;1.60;;;22.20;73.70;;;;;;5073101;28;20576;-82
2023/05/11 10:36:29;;;;;;;2.33;2.23;;;22.20;74.50;;;;;;5073157;28;20535;-82
2023/05/11 10:38:56;;;;;;;2.20;2.00;;;22.20;73.70;;;;;;5073168;28;20446;-83
2023/05/11 10:41:39;;;;;;;2.27;2.07;;;22.20;73.70;;;;;;5073048;28;20851;-87
2023/05/11 10:44:51;;;;;;;2.30;2.03;;;22.20;73.60;;;;;;5073136;28;20462;-83
2023/05/11 10:47:54;;;;;;;2.37;2.17;;;22.20;73.60;;;;;;5037128;28;20878;-83
2023/05/11 10:50:42;;;;;;;1.93;1.83;;;22.20;73.60;;;;;;5050219;28;20503;-83
2023/05/11 10:53:46;;;;;;;1.93;1.83;;;22.20;73.70;;;;;;5072910;28;20967;-83
2023/05/11 10:56:37;;;;;;;1.93;1.83;;;22.20;74.50;;;;;;5073333;28;20795;-83
2023/05/11 10:59:20;;;;;;;2.03;1.87;;;22.20;73.70;;;;;;5077102;28;20840;-87
2023/05/11 11:01:50;;;;;;;1.80;1.70;;;22.20;73.70;;;;;;5076860;28;21037;-82
2023/05/11 11:04:19;;;;;;;1.97;1.87;;;22.20;73.70;;;;;;5077024;28;20499;-83
2023/05/11 11:06:47;;;;;;;2.20;2.00;;;22.20;73.70;;;;;;5076874;28;20450;-83
2023/05/11 11:09:15;;;;;;;2.27;2.17;;;22.20;73.70;;;;;;5076824;28;20481;-83
2023/05/11 11:11:45;;;;;;;1.80;1.70;;;22.20;73.80;;;;;;5076524;28;20547;-82
2023/05/11 11:14:13;;;;;;;1.97;1.87;;;22.20;74.50;;;;;;5076648;28;20485;-82
2023/05/11 11:16:41;;;;;;;1.90;1.80;;;22.20;73.70;;;;;;5076737;28;20449;-82
2023/05/11 11:19:37;;;;;;;2.00;1.90;;;22.20;73.70;;;;;;5076666;28;20498;-83
2023/05/11 11:22:06;;;;;;;2.13;2.03;;;22.20;73.70;;;;;;5076572;28;20466;-83
2023/05/11 11:24:46;;;;;;;2.10;2.00;;;22.20;73.80;;;;;;5076509;28;20481;-82
2023/05/11 11:27:14;;;;;;;2.30;2.20;;;22.20;74.60;;;;;;5076444;28;20791;-82
2023/05/11 11:29:41;;;;;;;1.90;1.80;;;22.20;73.80;;;;;;5076309;28;20878;-82
2023/05/11 11:32:30;;;;;;;2.30;2.20;;;22.20;73.80;;;;;;5076371;28;20463;-83
2023/05/11 11:34:57;;;;;;;1.90;1.80;;;22.20;73.80;;;;;;5076249;28;20486;-82
2023/05/11 11:37:25;;;;;;;1.80;1.70;;;22.20;73.80;;;;;;5076188;28;20443;-88
2023/05/11 11:40:00;;;;;;;1.87;1.77;;;22.20;73.80;;;;;;5076217;28;20444;-83
2023/05/11 11:42:41;;;;;;;2.00;1.90;;;22.20;73.80;;;;;;5076119;28;20449;-82
2023/05/11 11:45:32;;;;;;;1.90;1.80;;;22.20;73.80;;;;;;5076142;28;20456;-82
2023/05/11 11:48:13;;;;;;;1.93;1.83;;;22.20;73.90;;;;;;5060868;28;20452;-84
2023/05/11 11:50:45;;;;;;;1.93;1.83;;;22.20;73.90;;;;;;5075939;28;20460;-88
2023/05/11 11:54:06;;;;;;;2.00;1.90;;;22.20;74.00;;;;;;5076134;28;21024;-82
2023/05/11 11:56:43;;;;;;;1.87;1.77;;;22.20;74.00;;;;;;5076067;28;20513;-83
2023/05/11 11:59:12;;;;;;;2.13;2.03;;;22.20;74.00;;;;;;5075903;28;20930;-82
2023/05/11 12:01:40;;;;;;;2.33;2.23;;;22.20;74.00;;;;;;5075837;28;20690;-83
2023/05/11 12:04:28;;;;;;;2.10;2.00;;;22.20;74.00;;;;;;5075802;28;20444;-82
2023/05/11 12:06:57;;;;;;;2.00;1.90;;;22.20;74.10;;;;;;5075843;28;20489;-83
2023/05/11 12:09:26;;;;;;;1.80;1.70;;;22.20;74.10;;;;;;5074256;28;20971;-83
2023/05/11 12:11:53;;;;;;;2.23;2.03;;;22.20;74.10;;;;;;5075620;28;20442;-84
2023/05/11 12:14:21;;;;;;;2.47;2.30;;;22.20;74.10;;;;;;5075477;28;20515;-82
2023/05/11 12:17:07;;;;;;;2.13;2.03;;;22.20;74.00;;;;;;5075655;28;20438;-83
2023/05/11 12:19:35;;;;;;;2.10;2.00;;;22.20;74.10;;;;;;5075571;28;20485;-83
2023/05/11 12:22:02;;;;;;;1.80;1.70;;;22.20;74.00;;;;;;5075497;28;20448;-82
2023/05/11 12:24:30;;;;;;;1.87;1.77;;;22.20;74.00;;;;;;5075346;28;20468;-82
2023/05/11 12:26:57;;;;;;;1.90;1.80;;;22.20;73.90;;;;;;5075386;28;20465;-82
2023/05/11 12:29:24;;;;;;;4.17;2.30;;;22.20;74.70;;;;;;5075344;28;20528;-83
2023/05/11 12:31:51;;;;;;;1.90;1.80;;;22.20;73.80;;;;;;5075050;28;20539;-83
2023/05/11 12:34:20;;;;;;;2.03;1.90;;;22.20;73.90;;;;;;5075406;28;20517;-83
2023/05/11 12:36:48;;;;;;;1.70;1.60;;;22.20;73.80;;;;;;5075352;28;20437;-83
2023/05/11 12:39:19;;;;;;;2.00;1.90;;;22.20;73.80;;;;;;5075311;28;20437;-88
2023/05/11 12:41:49;;;;;;;2.03;1.93;;;22.20;73.80;;;;;;5075053;28;20442;-83
2023/05/11 12:44:17;;;;;;;2.17;1.97;;;22.20;73.80;;;;;;5075095;28;20451;-83
2023/05/11 12:46:45;;;;;;;1.67;1.57;;;22.20;73.80;;;;;;5075093;28;20446;-82
2023/05/11 12:49:16;;;;;;;1.90;1.80;;;22.20;73.80;;;;;;5075048;28;20434;-83
2023/05/11 12:52:00;;;;;;;1.90;1.80;;;22.20;73.80;;;;;;5074779;28;20537;-82
2023/05/11 12:54:29;;;;;;;1.83;1.73;;;22.20;73.80;;;;;;5074788;28;20485;-83
2023/05/11 12:56:57;;;;;;;2.13;2.03;;;22.20;73.80;;;;;;5074871;28;20437;-82
2023/05/11 12:59:30;;;;;;;2.00;1.90;;;22.20;73.80;;;;;;5074942;28;20448;-83